PWSweather.com
Personal Weather Stations
Station Observations
KKYCRABO2
Cedar Creek Lake 840 Ky. Hwy. 39 N, Crab Orchard, KY 40419

Cedar Creek Lake 840 Ky. Hwy. 39 NCrab Orchard, KY 40419

Lat: 37.4736234544238, Lon: -84.5120286941528

Elevation: 952

Station Type: TYCON Power TP1080WC Pro

http://kbweather.net/

Latest ConditionsUpdated 2:20:00 PM EDT Tuesday, Apr 24, 2018
Currently Today's Max Today's Min Today's Average
Temperature 65.2°F18.4°C 65.8°F18.8°C 53.2°F11.8°C 55.0°F12.8°C
Dew Point 57.2°F14.0°C 59.0°F15.0°C 50.0°F10.0°C 52.0°F11.1°C
Winds 2.2 mph NNE3.5 kmh NNE 3.8 mph SW6.1 kmh SW - 0.6 mph 1.0 kmh
Wind Gusts 4.0 mph6.4 kmh 4.9 mph7.9 kmh - -
Humidity 77% 95% 77% 93%
Pressure 29.93 in1013.5 mb 29.99 in1015.6 mb 29.90 in1012.5 mb -
Precipitation - 0.82 in20.8 mm - -
Hour Temp Dew Point Humidity Winds Wind Gusts Pressure Precip Precip Rate Daily Precip Total
02:20 PM 65.2°F18.4°C 57.2°F14.0°C 77% 2.2 mph NNE3.5 kmh NNE 4.0 mph6.4 kmh 29.93 in1013.5 mb 0.00 in0.0 mm 0.00 in0.0 mm 0.82 in20.8 mm
02:15 PM 65.2°F18.4°C 57.2°F14.0°C 77% 0.9 mph NW1.4 kmh NW 4.0 mph6.4 kmh 29.93 in1013.5 mb 0.00 in0.0 mm 0.00 in0.0 mm 0.82 in20.8 mm
02:10 PM 65.0°F18.3°C 57.2°F14.0°C 78% 1.6 mph SSE2.6 kmh SSE 3.8 mph6.1 kmh 29.93 in1013.5 mb 0.00 in0.0 mm 0.00 in0.0 mm 0.82 in20.8 mm
02:05 PM 65.8°F18.8°C 59.0°F15.0°C 79% 1.6 mph E2.6 kmh E 3.8 mph6.1 kmh 29.93 in1013.5 mb 0.00 in0.0 mm 0.00 in0.0 mm 0.82 in20.8 mm
02:00 PM 65.2°F18.4°C 59.0°F15.0°C 83% Calm Calm 3.1 mph5.0 kmh 29.93 in1013.5 mb 0.00 in0.0 mm 0.00 in0.0 mm 0.82 in20.8 mm
01:55 PM 64.0°F17.8°C 57.2°F14.0°C 82% 1.6 mph W2.6 kmh W 3.4 mph5.5 kmh 29.93 in1013.5 mb 0.00 in0.0 mm 0.00 in0.0 mm 0.82 in20.8 mm
01:50 PM 63.4°F17.4°C 59.0°F15.0°C 88% 1.3 mph NW2.1 kmh NW 3.4 mph5.5 kmh 29.93 in1013.5 mb 0.00 in0.0 mm 0.00 in0.0 mm 0.82 in20.8 mm
01:45 PM 62.5°F16.9°C 59.0°F15.0°C 90% 1.6 mph NW2.6 kmh NW 3.8 mph6.1 kmh 29.93 in1013.5 mb 0.00 in0.0 mm 0.00 in0.0 mm 0.82 in20.8 mm
01:40 PM 61.3°F16.3°C 57.2°F14.0°C 90% 2.7 mph WNW4.3 kmh WNW 3.8 mph6.1 kmh 29.93 in1013.5 mb 0.00 in0.0 mm 0.00 in0.0 mm 0.82 in20.8 mm
01:35 PM 60.5°F15.8°C 57.2°F14.0°C 90% 1.6 mph WNW2.6 kmh WNW 3.4 mph5.5 kmh 29.93 in1013.5 mb 0.00 in0.0 mm 0.00 in0.0 mm 0.82 in20.8 mm
01:30 PM 60.2°F15.7°C 55.4°F13.0°C 90% 2.5 mph NW4.0 kmh NW 2.9 mph4.7 kmh 29.93 in1013.5 mb 0.00 in0.0 mm 0.00 in0.0 mm 0.82 in20.8 mm
01:25 PM 60.0°F15.6°C 57.2°F14.0°C 92% 1.3 mph NW2.1 kmh NW 2.9 mph4.7 kmh 29.93 in1013.5 mb 0.00 in0.0 mm 0.00 in0.0 mm 0.82 in20.8 mm
01:20 PM 59.8°F15.4°C 57.2°F14.0°C 92% 1.6 mph SW2.6 kmh SW 2.9 mph4.7 kmh 29.93 in1013.5 mb 0.00 in0.0 mm 0.00 in0.0 mm 0.82 in20.8 mm
01:15 PM 59.5°F15.3°C 55.4°F13.0°C 92% Calm Calm 2.2 mph3.5 kmh 29.93 in1013.5 mb 0.00 in0.0 mm 0.00 in0.0 mm 0.82 in20.8 mm
01:10 PM 59.1°F15.1°C 57.2°F14.0°C 93% 1.3 mph S2.1 kmh S 2.2 mph3.5 kmh 29.93 in1013.5 mb 0.00 in0.0 mm 0.00 in0.0 mm 0.82 in20.8 mm
01:05 PM 58.9°F14.9°C 55.4°F13.0°C 94% Calm Calm 1.3 mph2.1 kmh 29.93 in1013.5 mb 0.00 in0.0 mm 0.00 in0.0 mm 0.82 in20.8 mm
01:00 PM 58.6°F14.8°C 55.4°F13.0°C 94% Calm Calm 2.0 mph3.2 kmh 29.93 in1013.5 mb 0.00 in0.0 mm 0.00 in0.0 mm 0.82 in20.8 mm
12:55 PM 58.2°F14.6°C 55.4°F13.0°C 94% Calm Calm 2.0 mph3.2 kmh 29.93 in1013.5 mb 0.00 in0.0 mm 0.00 in0.0 mm 0.82 in20.8 mm
12:50 PM 58.0°F14.4°C 55.4°F13.0°C 94% 1.6 mph S2.6 kmh S 2.0 mph3.2 kmh 29.93 in1013.5 mb 0.00 in0.0 mm 0.00 in0.0 mm 0.82 in20.8 mm
12:45 PM 58.0°F14.4°C 55.4°F13.0°C 94% 0.9 mph S1.4 kmh S 2.5 mph4.0 kmh 29.93 in1013.5 mb 0.00 in0.0 mm 0.00 in0.0 mm 0.82 in20.8 mm
12:40 PM 57.8°F14.3°C 55.4°F13.0°C 94% 0.9 mph S1.4 kmh S 2.5 mph4.0 kmh 29.93 in1013.5 mb 0.00 in0.0 mm 0.00 in0.0 mm 0.82 in20.8 mm
12:35 PM 57.7°F14.3°C 55.4°F13.0°C 95% Calm Calm 2.2 mph3.5 kmh 29.93 in1013.5 mb 0.00 in0.0 mm 0.00 in0.0 mm 0.82 in20.8 mm
12:30 PM 57.5°F14.2°C 55.4°F13.0°C 95% Calm Calm 2.2 mph3.5 kmh 29.93 in1013.5 mb 0.00 in0.0 mm 0.00 in0.0 mm 0.82 in20.8 mm
12:25 PM 57.1°F13.9°C 55.4°F13.0°C 95% Calm Calm 2.2 mph3.5 kmh 29.93 in1013.5 mb 0.00 in0.0 mm 0.00 in0.0 mm 0.82 in20.8 mm
12:20 PM 56.9°F13.8°C 55.4°F13.0°C 95% Calm Calm 1.6 mph2.6 kmh 29.93 in1013.5 mb 0.00 in0.0 mm 0.00 in0.0 mm 0.82 in20.8 mm
12:15 PM 56.6°F13.7°C 55.4°F13.0°C 95% Calm Calm 1.6 mph2.6 kmh 29.96 in1014.6 mb 0.00 in0.0 mm 0.00 in0.0 mm 0.82 in20.8 mm
12:10 PM 56.4°F13.6°C 55.4°F13.0°C 95% Calm Calm 2.7 mph4.3 kmh 29.96 in1014.6 mb 0.00 in0.0 mm 0.00 in0.0 mm 0.82 in20.8 mm
12:05 PM 56.0°F13.3°C 55.4°F13.0°C 95% Calm Calm 2.7 mph4.3 kmh 29.96 in1014.6 mb 0.00 in0.0 mm 0.00 in0.0 mm 0.82 in20.8 mm
12:00 PM 56.0°F13.3°C 55.4°F13.0°C 95% 0.9 mph ENE1.4 kmh ENE 2.7 mph4.3 kmh 29.93 in1013.5 mb 0.04 in1.0 mm 0.00 in0.0 mm 0.82 in20.8 mm
11:55 AM 55.9°F13.3°C 53.6°F12.0°C 95% Calm Calm 2.7 mph4.3 kmh 29.93 in1013.5 mb 0.04 in1.0 mm 0.00 in0.0 mm 0.82 in20.8 mm
11:50 AM 55.7°F13.2°C 53.6°F12.0°C 95% Calm Calm 2.9 mph4.7 kmh 29.93 in1013.5 mb 0.04 in1.0 mm 0.00 in0.0 mm 0.82 in20.8 mm
11:45 AM 55.5°F13.1°C 53.6°F12.0°C 95% Calm Calm 2.9 mph4.7 kmh 29.96 in1014.6 mb 0.04 in1.0 mm 0.00 in0.0 mm 0.82 in20.8 mm
11:40 AM 55.5°F13.1°C 53.6°F12.0°C 95% 1.3 mph NNW2.1 kmh NNW 2.9 mph4.7 kmh 29.96 in1014.6 mb 0.04 in1.0 mm 0.00 in0.0 mm 0.82 in20.8 mm
11:35 AM 55.3°F12.9°C 53.6°F12.0°C 95% Calm Calm 2.2 mph3.5 kmh 29.96 in1014.6 mb 0.04 in1.0 mm 0.00 in0.0 mm 0.82 in20.8 mm
11:30 AM 55.3°F12.9°C 53.6°F12.0°C 95% 1.1 mph NE1.8 kmh NE 2.2 mph3.5 kmh 29.96 in1014.6 mb 0.04 in1.0 mm 0.00 in0.0 mm 0.82 in20.8 mm
11:25 AM 55.1°F12.8°C 53.6°F12.0°C 95% 0.9 mph NNE1.4 kmh NNE 2.9 mph4.7 kmh 29.96 in1014.6 mb 0.08 in2.0 mm 0.00 in0.0 mm 0.82 in20.8 mm
11:20 AM 55.1°F12.8°C 53.6°F12.0°C 95% 1.1 mph N1.8 kmh N 2.9 mph4.7 kmh 29.96 in1014.6 mb 0.08 in2.0 mm 0.00 in0.0 mm 0.82 in20.8 mm
11:15 AM 55.0°F12.8°C 53.6°F12.0°C 95% 1.1 mph NNW1.8 kmh NNW 2.0 mph3.2 kmh 29.96 in1014.6 mb 0.08 in2.0 mm 0.00 in0.0 mm 0.82 in20.8 mm
11:10 AM 55.0°F12.8°C 53.6°F12.0°C 95% 1.1 mph NNW1.8 kmh NNW 2.0 mph3.2 kmh 29.96 in1014.6 mb 0.08 in2.0 mm 0.00 in0.0 mm 0.82 in20.8 mm
11:05 AM 54.8°F12.7°C 53.6°F12.0°C 95% 0.9 mph NNW1.4 kmh NNW 2.7 mph4.3 kmh 29.96 in1014.6 mb 0.08 in2.0 mm 0.00 in0.0 mm 0.82 in20.8 mm
11:00 AM 54.8°F12.7°C 53.6°F12.0°C 95% 1.3 mph NNW2.1 kmh NNW 2.7 mph4.3 kmh 29.96 in1014.6 mb 0.08 in2.0 mm 0.00 in0.0 mm 0.78 in19.8 mm
10:55 AM 54.6°F12.6°C 53.6°F12.0°C 95% Calm Calm 2.0 mph3.2 kmh 29.96 in1014.6 mb 0.08 in2.0 mm 0.00 in0.0 mm 0.78 in19.8 mm
10:50 AM 54.6°F12.6°C 53.6°F12.0°C 95% 1.3 mph NW2.1 kmh NW 2.2 mph3.5 kmh 29.96 in1014.6 mb 0.08 in2.0 mm 0.00 in0.0 mm 0.78 in19.8 mm
10:45 AM 54.4°F12.4°C 51.8°F11.0°C 95% Calm Calm 3.4 mph5.5 kmh 29.96 in1014.6 mb 0.08 in2.0 mm 0.00 in0.0 mm 0.78 in19.8 mm
10:40 AM 54.4°F12.4°C 51.8°F11.0°C 95% 2.0 mph NW3.2 kmh NW 3.4 mph5.5 kmh 29.96 in1014.6 mb 0.12 in3.0 mm 0.00 in0.0 mm 0.78 in19.8 mm
10:35 AM 54.4°F12.4°C 51.8°F11.0°C 95% 2.2 mph NNW3.5 kmh NNW 3.8 mph6.1 kmh 29.96 in1014.6 mb 0.12 in3.0 mm 0.00 in0.0 mm 0.78 in19.8 mm
10:30 AM 54.2°F12.3°C 51.8°F11.0°C 95% 1.6 mph NW2.6 kmh NW 3.8 mph6.1 kmh 29.96 in1014.6 mb 0.12 in3.0 mm 0.48 in12.2 mm 0.78 in19.8 mm
10:25 AM 54.2°F12.3°C 51.8°F11.0°C 95% 1.3 mph NW2.1 kmh NW 3.4 mph5.5 kmh 29.96 in1014.6 mb 0.08 in2.0 mm 0.00 in0.0 mm 0.74 in18.8 mm
10:20 AM 54.2°F12.3°C 51.8°F11.0°C 95% 2.5 mph NW4.0 kmh NW 3.6 mph5.8 kmh 29.96 in1014.6 mb 0.08 in2.0 mm 0.00 in0.0 mm 0.74 in18.8 mm
10:15 AM 54.1°F12.3°C 51.8°F11.0°C 94% 2.0 mph WNW3.2 kmh WNW 3.6 mph5.8 kmh 29.96 in1014.6 mb 0.08 in2.0 mm 0.00 in0.0 mm 0.74 in18.8 mm
10:10 AM 54.1°F12.3°C 51.8°F11.0°C 94% 2.0 mph W3.2 kmh W 3.6 mph5.8 kmh 29.96 in1014.6 mb 0.08 in2.0 mm 0.00 in0.0 mm 0.74 in18.8 mm
10:05 AM 54.1°F12.3°C 51.8°F11.0°C 94% 1.6 mph W2.6 kmh W 3.4 mph5.5 kmh 29.96 in1014.6 mb 0.12 in3.0 mm 0.48 in12.2 mm 0.74 in18.8 mm
10:00 AM 54.1°F12.3°C 51.8°F11.0°C 94% 2.7 mph WNW4.3 kmh WNW 3.4 mph5.5 kmh 29.96 in1014.6 mb 0.08 in2.0 mm 0.00 in0.0 mm 0.70 in17.8 mm
09:55 AM 54.2°F12.3°C 51.8°F11.0°C 94% 1.6 mph NW2.6 kmh NW 3.4 mph5.5 kmh 29.96 in1014.6 mb 0.08 in2.0 mm 0.00 in0.0 mm 0.70 in17.8 mm
09:50 AM 54.2°F12.3°C 51.8°F11.0°C 94% 2.0 mph NW3.2 kmh NW 2.5 mph4.0 kmh 29.96 in1014.6 mb 0.08 in2.0 mm 0.00 in0.0 mm 0.70 in17.8 mm
09:45 AM 54.2°F12.3°C 51.8°F11.0°C 94% 1.1 mph NW1.8 kmh NW 2.5 mph4.0 kmh 29.93 in1013.5 mb 0.12 in3.0 mm 0.48 in12.2 mm 0.70 in17.8 mm
09:40 AM 54.2°F12.3°C 51.8°F11.0°C 94% 1.3 mph NW2.1 kmh NW 2.5 mph4.0 kmh 29.93 in1013.5 mb 0.08 in2.0 mm 0.00 in0.0 mm 0.66 in16.8 mm
09:35 AM 54.2°F12.3°C 51.8°F11.0°C 94% Calm Calm 2.5 mph4.0 kmh 29.93 in1013.5 mb 0.08 in2.0 mm 0.00 in0.0 mm 0.66 in16.8 mm
09:30 AM 54.2°F12.3°C 51.8°F11.0°C 95% Calm Calm 2.7 mph4.3 kmh 29.93 in1013.5 mb 0.08 in2.0 mm 0.00 in0.0 mm 0.66 in16.8 mm
09:25 AM 54.2°F12.3°C 51.8°F11.0°C 94% Calm Calm 2.7 mph4.3 kmh 29.93 in1013.5 mb 0.08 in2.0 mm 0.00 in0.0 mm 0.66 in16.8 mm
09:20 AM 54.2°F12.3°C 51.8°F11.0°C 95% 0.9 mph WSW1.4 kmh WSW 1.1 mph1.8 kmh 29.93 in1013.5 mb 0.08 in2.0 mm 0.00 in0.0 mm 0.66 in16.8 mm
09:15 AM 54.1°F12.3°C 51.8°F11.0°C 94% Calm Calm 1.6 mph2.6 kmh 29.96 in1014.6 mb 0.13 in3.3 mm 0.00 in0.0 mm 0.66 in16.8 mm
09:10 AM 54.1°F12.3°C 51.8°F11.0°C 94% Calm Calm 2.7 mph4.3 kmh 29.96 in1014.6 mb 0.13 in3.3 mm 0.48 in12.2 mm 0.66 in16.8 mm
09:05 AM 54.1°F12.3°C 51.8°F11.0°C 94% 1.3 mph WSW2.1 kmh WSW 3.6 mph5.8 kmh 29.96 in1014.6 mb 0.09 in2.3 mm 0.00 in0.0 mm 0.62 in15.7 mm
09:00 AM 54.1°F12.3°C 51.8°F11.0°C 95% 2.2 mph WSW3.5 kmh WSW 4.0 mph6.4 kmh 29.96 in1014.6 mb 0.09 in2.3 mm 0.00 in0.0 mm 0.62 in15.7 mm
08:55 AM 54.1°F12.3°C 51.8°F11.0°C 94% 3.8 mph SW6.1 kmh SW 4.0 mph6.4 kmh 29.96 in1014.6 mb 0.09 in2.3 mm 0.00 in0.0 mm 0.62 in15.7 mm
08:50 AM 53.9°F12.2°C 51.8°F11.0°C 94% 2.9 mph S4.7 kmh S 3.4 mph5.5 kmh 29.96 in1014.6 mb 0.09 in2.3 mm 0.48 in12.2 mm 0.62 in15.7 mm
08:45 AM 53.9°F12.2°C 51.8°F11.0°C 94% 1.1 mph S1.8 kmh S 2.7 mph4.3 kmh 29.93 in1013.5 mb 0.05 in1.3 mm 0.00 in0.0 mm 0.58 in14.7 mm
08:40 AM 53.9°F12.2°C 51.8°F11.0°C 94% 1.3 mph S2.1 kmh S 2.5 mph4.0 kmh 29.93 in1013.5 mb 0.05 in1.3 mm 0.00 in0.0 mm 0.58 in14.7 mm
08:35 AM 53.7°F12.1°C 51.8°F11.0°C 94% Calm Calm -- 29.93 in1013.5 mb 0.05 in1.3 mm 0.00 in0.0 mm 0.58 in14.7 mm
08:30 AM 53.7°F12.1°C 51.8°F11.0°C 94% Calm Calm -- 29.93 in1013.5 mb 0.05 in1.3 mm 0.00 in0.0 mm 0.58 in14.7 mm
08:25 AM 53.7°F12.1°C 51.8°F11.0°C 94% Calm Calm -- 29.93 in1013.5 mb 0.05 in1.3 mm 0.00 in0.0 mm 0.58 in14.7 mm
08:20 AM 53.7°F12.1°C 51.8°F11.0°C 94% Calm Calm -- 29.93 in1013.5 mb 0.05 in1.3 mm 0.60 in15.2 mm 0.58 in14.7 mm
08:15 AM 53.7°F12.1°C 51.8°F11.0°C 94% Calm Calm 2.5 mph4.0 kmh 29.93 in1013.5 mb 0.00 in0.0 mm 0.00 in0.0 mm 0.53 in13.5 mm
08:10 AM 53.7°F12.1°C 51.8°F11.0°C 94% 1.1 mph SSE1.8 kmh SSE 2.5 mph4.0 kmh 29.93 in1013.5 mb 0.00 in0.0 mm 0.00 in0.0 mm 0.53 in13.5 mm
08:05 AM 53.7°F12.1°C 51.8°F11.0°C 94% 1.1 mph SSE1.8 kmh SSE 2.2 mph3.5 kmh 29.93 in1013.5 mb 0.00 in0.0 mm 0.00 in0.0 mm 0.53 in13.5 mm
08:00 AM 53.5°F11.9°C 50.0°F10.0°C 94% Calm Calm 2.7 mph4.3 kmh 29.93 in1013.5 mb 0.04 in1.0 mm 0.00 in0.0 mm 0.53 in13.5 mm
07:55 AM 53.5°F11.9°C 50.0°F10.0°C 94% 2.0 mph SE3.2 kmh SE 3.1 mph5.0 kmh 29.93 in1013.5 mb 0.04 in1.0 mm 0.00 in0.0 mm 0.53 in13.5 mm
07:50 AM 53.5°F11.9°C 50.0°F10.0°C 94% 2.0 mph SE3.2 kmh SE 3.1 mph5.0 kmh 29.93 in1013.5 mb 0.04 in1.0 mm 0.00 in0.0 mm 0.53 in13.5 mm
07:45 AM 53.5°F11.9°C 50.0°F10.0°C 93% Calm Calm -- 29.93 in1013.5 mb 0.04 in1.0 mm 0.00 in0.0 mm 0.53 in13.5 mm
07:40 AM 53.5°F11.9°C 50.0°F10.0°C 93% Calm Calm 1.3 mph2.1 kmh 29.93 in1013.5 mb 0.04 in1.0 mm 0.00 in0.0 mm 0.53 in13.5 mm
07:35 AM 53.3°F11.8°C 50.0°F10.0°C 93% Calm Calm 1.3 mph2.1 kmh 29.93 in1013.5 mb 0.04 in1.0 mm 0.00 in0.0 mm 0.53 in13.5 mm
07:30 AM 53.3°F11.8°C 50.0°F10.0°C 93% Calm Calm -- 29.96 in1014.6 mb 0.08 in2.0 mm 0.00 in0.0 mm 0.53 in13.5 mm
07:25 AM 53.2°F11.8°C 50.0°F10.0°C 93% Calm Calm -- 29.96 in1014.6 mb 0.08 in2.0 mm 0.00 in0.0 mm 0.53 in13.5 mm
07:20 AM 53.2°F11.8°C 50.0°F10.0°C 93% Calm Calm -- 29.96 in1014.6 mb 0.08 in2.0 mm 0.00 in0.0 mm 0.53 in13.5 mm
07:15 AM 53.2°F11.8°C 50.0°F10.0°C 93% Calm Calm -- 29.93 in1013.5 mb 0.08 in2.0 mm 0.00 in0.0 mm 0.53 in13.5 mm
07:10 AM 53.2°F11.8°C 50.0°F10.0°C 93% Calm Calm -- 29.93 in1013.5 mb 0.08 in2.0 mm 0.00 in0.0 mm 0.53 in13.5 mm
07:05 AM 53.2°F11.8°C 50.0°F10.0°C 93% Calm Calm -- 29.93 in1013.5 mb 0.08 in2.0 mm 0.48 in12.2 mm 0.53 in13.5 mm
07:00 AM 53.2°F11.8°C 50.0°F10.0°C 93% Calm Calm -- 29.90 in1012.5 mb 0.04 in1.0 mm 0.00 in0.0 mm 0.49 in12.4 mm
06:55 AM 53.2°F11.8°C 50.0°F10.0°C 93% Calm Calm 0.9 mph1.4 kmh 29.90 in1012.5 mb 0.04 in1.0 mm 0.00 in0.0 mm 0.49 in12.4 mm
06:50 AM 53.2°F11.8°C 50.0°F10.0°C 93% Calm Calm 0.9 mph1.4 kmh 29.90 in1012.5 mb 0.04 in1.0 mm 0.00 in0.0 mm 0.49 in12.4 mm
06:45 AM 53.2°F11.8°C 50.0°F10.0°C 93% Calm Calm 1.1 mph1.8 kmh 29.93 in1013.5 mb 0.04 in1.0 mm 0.00 in0.0 mm 0.49 in12.4 mm
06:40 AM 53.2°F11.8°C 50.0°F10.0°C 93% Calm Calm 1.1 mph1.8 kmh 29.93 in1013.5 mb 0.04 in1.0 mm 0.48 in12.2 mm 0.49 in12.4 mm
06:35 AM 53.2°F11.8°C 50.0°F10.0°C 93% Calm Calm -- 29.93 in1013.5 mb 0.00 in0.0 mm 0.00 in0.0 mm 0.45 in11.4 mm
06:30 AM 53.2°F11.8°C 50.0°F10.0°C 93% Calm Calm -- 29.93 in1013.5 mb 0.00 in0.0 mm 0.00 in0.0 mm 0.45 in11.4 mm
06:25 AM 53.2°F11.8°C 50.0°F10.0°C 93% Calm Calm -- 29.93 in1013.5 mb 0.00 in0.0 mm 0.00 in0.0 mm 0.45 in11.4 mm
06:20 AM 53.2°F11.8°C 50.0°F10.0°C 93% Calm Calm -- 29.93 in1013.5 mb 0.00 in0.0 mm 0.00 in0.0 mm 0.45 in11.4 mm
06:15 AM 53.2°F11.8°C 50.0°F10.0°C 93% Calm Calm -- 29.93 in1013.5 mb 0.00 in0.0 mm 0.00 in0.0 mm 0.45 in11.4 mm
06:10 AM 53.2°F11.8°C 50.0°F10.0°C 93% Calm Calm -- 29.93 in1013.5 mb 0.00 in0.0 mm 0.00 in0.0 mm 0.45 in11.4 mm
06:05 AM 53.2°F11.8°C 50.0°F10.0°C 93% Calm Calm -- 29.93 in1013.5 mb 0.00 in0.0 mm 0.00 in0.0 mm 0.45 in11.4 mm
06:00 AM 53.2°F11.8°C 50.0°F10.0°C 93% Calm Calm -- 29.93 in1013.5 mb 0.00 in0.0 mm 0.00 in0.0 mm 0.45 in11.4 mm
05:55 AM 53.3°F11.8°C 50.0°F10.0°C 93% Calm Calm 1.3 mph2.1 kmh 29.93 in1013.5 mb 0.00 in0.0 mm 0.00 in0.0 mm 0.45 in11.4 mm
05:50 AM 53.3°F11.8°C 50.0°F10.0°C 93% Calm Calm 1.3 mph2.1 kmh 29.93 in1013.5 mb 0.00 in0.0 mm 0.00 in0.0 mm 0.45 in11.4 mm
05:45 AM 53.3°F11.8°C 50.0°F10.0°C 93% Calm Calm -- 29.93 in1013.5 mb 0.04 in1.0 mm 0.00 in0.0 mm 0.45 in11.4 mm
05:40 AM 53.2°F11.8°C 50.0°F10.0°C 93% Calm Calm -- 29.93 in1013.5 mb 0.04 in1.0 mm 0.00 in0.0 mm 0.45 in11.4 mm
05:35 AM 53.2°F11.8°C 50.0°F10.0°C 93% Calm Calm -- 29.93 in1013.5 mb 0.04 in1.0 mm 0.00 in0.0 mm 0.45 in11.4 mm
05:30 AM 53.2°F11.8°C 50.0°F10.0°C 93% Calm Calm -- 29.93 in1013.5 mb 0.04 in1.0 mm 0.00 in0.0 mm 0.45 in11.4 mm
05:25 AM 53.2°F11.8°C 50.0°F10.0°C 93% Calm Calm -- 29.93 in1013.5 mb 0.04 in1.0 mm 0.00 in0.0 mm 0.45 in11.4 mm
05:20 AM 53.3°F11.8°C 50.0°F10.0°C 93% Calm Calm -- 29.93 in1013.5 mb 0.04 in1.0 mm 0.00 in0.0 mm 0.45 in11.4 mm
05:15 AM 53.3°F11.8°C 50.0°F10.0°C 93% Calm Calm -- 29.93 in1013.5 mb 0.04 in1.0 mm 0.00 in0.0 mm 0.45 in11.4 mm
05:10 AM 53.3°F11.8°C 50.0°F10.0°C 93% Calm Calm 1.1 mph1.8 kmh 29.93 in1013.5 mb 0.04 in1.0 mm 0.00 in0.0 mm 0.45 in11.4 mm
05:05 AM 53.3°F11.8°C 50.0°F10.0°C 93% Calm Calm 2.5 mph4.0 kmh 29.93 in1013.5 mb 0.04 in1.0 mm 0.00 in0.0 mm 0.45 in11.4 mm
05:00 AM 53.3°F11.8°C 50.0°F10.0°C 93% Calm Calm 2.5 mph4.0 kmh 29.93 in1013.5 mb 0.04 in1.0 mm 0.00 in0.0 mm 0.45 in11.4 mm
04:55 AM 53.5°F11.9°C 50.0°F10.0°C 93% Calm Calm 2.7 mph4.3 kmh 29.93 in1013.5 mb 0.04 in1.0 mm 0.00 in0.0 mm 0.45 in11.4 mm
04:50 AM 53.5°F11.9°C 50.0°F10.0°C 93% 1.3 mph E2.1 kmh E 2.7 mph4.3 kmh 29.93 in1013.5 mb 0.04 in1.0 mm 0.48 in12.2 mm 0.45 in11.4 mm
04:45 AM 53.5°F11.9°C 50.0°F10.0°C 93% Calm Calm 1.6 mph2.6 kmh 29.96 in1014.6 mb 0.00 in0.0 mm 0.00 in0.0 mm 0.41 in10.4 mm
04:40 AM 53.5°F11.9°C 50.0°F10.0°C 93% Calm Calm 1.6 mph2.6 kmh 29.96 in1014.6 mb 0.00 in0.0 mm 0.00 in0.0 mm 0.41 in10.4 mm
04:35 AM 53.5°F11.9°C 50.0°F10.0°C 93% Calm Calm 1.6 mph2.6 kmh 29.96 in1014.6 mb 0.00 in0.0 mm 0.00 in0.0 mm 0.41 in10.4 mm
04:30 AM 53.5°F11.9°C 50.0°F10.0°C 93% Calm Calm 2.2 mph3.5 kmh 29.96 in1014.6 mb 0.04 in1.0 mm 0.00 in0.0 mm 0.41 in10.4 mm
04:25 AM 53.5°F11.9°C 50.0°F10.0°C 92% 1.6 mph E2.6 kmh E 2.2 mph3.5 kmh 29.96 in1014.6 mb 0.04 in1.0 mm 0.00 in0.0 mm 0.41 in10.4 mm
04:20 AM 53.5°F11.9°C 50.0°F10.0°C 92% Calm Calm 0.9 mph1.4 kmh 29.96 in1014.6 mb 0.04 in1.0 mm 0.00 in0.0 mm 0.41 in10.4 mm
04:15 AM 53.5°F11.9°C 50.0°F10.0°C 92% Calm Calm 0.9 mph1.4 kmh 29.96 in1014.6 mb 0.04 in1.0 mm 0.00 in0.0 mm 0.41 in10.4 mm
04:10 AM 53.5°F11.9°C 50.0°F10.0°C 92% Calm Calm -- 29.96 in1014.6 mb 0.04 in1.0 mm 0.00 in0.0 mm 0.41 in10.4 mm
04:05 AM 53.7°F12.1°C 50.0°F10.0°C 92% Calm Calm -- 29.96 in1014.6 mb 0.04 in1.0 mm 0.00 in0.0 mm 0.41 in10.4 mm
04:00 AM 53.7°F12.1°C 50.0°F10.0°C 92% Calm Calm -- 29.96 in1014.6 mb 0.04 in1.0 mm 0.00 in0.0 mm 0.41 in10.4 mm
03:55 AM 53.7°F12.1°C 50.0°F10.0°C 92% Calm Calm -- 29.96 in1014.6 mb 0.04 in1.0 mm 0.00 in0.0 mm 0.41 in10.4 mm
03:50 AM 53.7°F12.1°C 50.0°F10.0°C 92% Calm Calm -- 29.96 in1014.6 mb 0.08 in2.0 mm 0.00 in0.0 mm 0.41 in10.4 mm
03:45 AM 53.9°F12.2°C 50.0°F10.0°C 92% Calm Calm -- 29.96 in1014.6 mb 0.08 in2.0 mm 0.00 in0.0 mm 0.41 in10.4 mm
03:40 AM 53.9°F12.2°C 50.0°F10.0°C 92% Calm Calm -- 29.96 in1014.6 mb 0.08 in2.0 mm 0.00 in0.0 mm 0.41 in10.4 mm
03:35 AM 53.9°F12.2°C 50.0°F10.0°C 92% Calm Calm -- 29.96 in1014.6 mb 0.13 in3.3 mm 0.00 in0.0 mm 0.41 in10.4 mm
03:30 AM 53.7°F12.1°C 50.0°F10.0°C 92% Calm Calm -- 29.99 in1015.6 mb 0.13 in3.3 mm 0.00 in0.0 mm 0.37 in9.4 mm
03:25 AM 53.9°F12.2°C 51.8°F11.0°C 93% Calm Calm -- 29.99 in1015.6 mb 0.13 in3.3 mm 0.00 in0.0 mm 0.37 in9.4 mm
03:20 AM 53.9°F12.2°C 51.8°F11.0°C 93% Calm Calm 2.0 mph3.2 kmh 29.99 in1015.6 mb 0.17 in4.3 mm 0.00 in0.0 mm 0.37 in9.4 mm
03:15 AM 53.9°F12.2°C 51.8°F11.0°C 93% 0.9 mph ENE1.4 kmh ENE 2.0 mph3.2 kmh 29.99 in1015.6 mb 0.21 in5.3 mm 0.00 in0.0 mm 0.37 in9.4 mm
03:10 AM 53.9°F12.2°C 51.8°F11.0°C 93% Calm Calm 2.2 mph3.5 kmh 29.99 in1015.6 mb 0.21 in5.3 mm 0.00 in0.0 mm 0.37 in9.4 mm
03:05 AM 53.9°F12.2°C 51.8°F11.0°C 93% Calm Calm 2.2 mph3.5 kmh 29.99 in1015.6 mb 0.21 in5.3 mm 0.00 in0.0 mm 0.37 in9.4 mm
03:00 AM 53.9°F12.2°C 51.8°F11.0°C 93% 1.3 mph ENE2.1 kmh ENE 1.6 mph2.6 kmh 29.99 in1015.6 mb 0.25 in6.4 mm 0.00 in0.0 mm 0.37 in9.4 mm
02:55 AM 53.9°F12.2°C 50.0°F10.0°C 92% Calm Calm -- 29.99 in1015.6 mb 0.25 in6.4 mm 0.48 in12.2 mm 0.37 in9.4 mm
02:50 AM 53.9°F12.2°C 50.0°F10.0°C 92% Calm Calm -- 29.99 in1015.6 mb 0.21 in5.3 mm 0.00 in0.0 mm 0.33 in8.4 mm
02:45 AM 54.1°F12.3°C 50.0°F10.0°C 92% Calm Calm -- 29.99 in1015.6 mb 0.21 in5.3 mm 0.00 in0.0 mm 0.33 in8.4 mm
02:40 AM 54.1°F12.3°C 50.0°F10.0°C 92% Calm Calm 1.6 mph2.6 kmh 29.99 in1015.6 mb 0.21 in5.3 mm 0.12 in3.0 mm 0.33 in8.4 mm
02:35 AM 54.1°F12.3°C 50.0°F10.0°C 92% Calm Calm 1.6 mph2.6 kmh 29.99 in1015.6 mb 0.20 in5.1 mm 0.48 in12.2 mm 0.28 in7.1 mm
02:30 AM 54.1°F12.3°C 50.0°F10.0°C 92% Calm Calm 1.6 mph2.6 kmh 29.99 in1015.6 mb 0.16 in4.1 mm 0.00 in0.0 mm 0.24 in6.1 mm
02:25 AM 54.1°F12.3°C 50.0°F10.0°C 92% Calm Calm 1.6 mph2.6 kmh 29.99 in1015.6 mb 0.16 in4.1 mm 0.48 in12.2 mm 0.24 in6.1 mm
02:20 AM 54.1°F12.3°C 50.0°F10.0°C 92% Calm Calm 1.1 mph1.8 kmh 29.99 in1015.6 mb 0.12 in3.0 mm 0.00 in0.0 mm 0.20 in5.1 mm
02:15 AM 54.1°F12.3°C 50.0°F10.0°C 92% Calm Calm 1.1 mph1.8 kmh 29.96 in1014.6 mb 0.12 in3.0 mm 0.00 in0.0 mm 0.16 in4.1 mm
02:10 AM 54.1°F12.3°C 50.0°F10.0°C 92% Calm Calm -- 29.96 in1014.6 mb 0.12 in3.0 mm 0.00 in0.0 mm 0.16 in4.1 mm
02:05 AM 54.1°F12.3°C 50.0°F10.0°C 92% Calm Calm 1.3 mph2.1 kmh 29.96 in1014.6 mb 0.12 in3.0 mm 0.48 in12.2 mm 0.16 in4.1 mm
02:00 AM 54.1°F12.3°C 51.8°F11.0°C 93% 0.9 mph ENE1.4 kmh ENE 1.3 mph2.1 kmh 29.99 in1015.6 mb 0.08 in2.0 mm 0.00 in0.0 mm 0.12 in3.0 mm
01:55 AM 54.1°F12.3°C 51.8°F11.0°C 93% 0.9 mph ENE1.4 kmh ENE 2.0 mph3.2 kmh 29.99 in1015.6 mb 0.12 in3.0 mm 0.00 in0.0 mm 0.12 in3.0 mm
01:50 AM 54.2°F12.3°C 51.8°F11.0°C 93% 1.1 mph NE1.8 kmh NE 2.0 mph3.2 kmh 29.99 in1015.6 mb 0.12 in3.0 mm 0.00 in0.0 mm 0.12 in3.0 mm
01:45 AM 54.1°F12.3°C 51.8°F11.0°C 93% Calm Calm 1.3 mph2.1 kmh 29.96 in1014.6 mb 0.12 in3.0 mm 0.48 in12.2 mm 0.12 in3.0 mm
01:40 AM 54.1°F12.3°C 51.8°F11.0°C 93% Calm Calm 1.3 mph2.1 kmh 29.96 in1014.6 mb 0.08 in2.0 mm 0.00 in0.0 mm 0.08 in2.0 mm
01:35 AM 54.2°F12.3°C 50.0°F10.0°C 92% 0.9 mph E1.4 kmh E 1.6 mph2.6 kmh 29.96 in1014.6 mb 0.08 in2.0 mm 0.00 in0.0 mm 0.08 in2.0 mm
01:30 AM 54.1°F12.3°C 50.0°F10.0°C 92% Calm Calm 1.6 mph2.6 kmh 29.99 in1015.6 mb 0.08 in2.0 mm 0.00 in0.0 mm 0.08 in2.0 mm
01:25 AM 54.2°F12.3°C 51.8°F11.0°C 93% Calm Calm 2.9 mph4.7 kmh 29.99 in1015.6 mb 0.08 in2.0 mm 0.00 in0.0 mm 0.08 in2.0 mm
01:20 AM 54.2°F12.3°C 50.0°F10.0°C 92% Calm Calm 2.9 mph4.7 kmh 29.99 in1015.6 mb 0.08 in2.0 mm 0.48 in12.2 mm 0.08 in2.0 mm
01:15 AM 54.2°F12.3°C 50.0°F10.0°C 92% Calm Calm 1.3 mph2.1 kmh 29.99 in1015.6 mb 0.04 in1.0 mm 0.00 in0.0 mm 0.04 in1.0 mm
01:10 AM 54.2°F12.3°C 50.0°F10.0°C 92% Calm Calm 1.3 mph2.1 kmh 29.99 in1015.6 mb 0.04 in1.0 mm 0.00 in0.0 mm 0.04 in1.0 mm
01:05 AM 54.2°F12.3°C 50.0°F10.0°C 92% Calm Calm 1.1 mph1.8 kmh 29.99 in1015.6 mb 0.04 in1.0 mm 0.00 in0.0 mm 0.04 in1.0 mm
01:00 AM 54.4°F12.4°C 51.8°F11.0°C 92% Calm Calm -- 29.99 in1015.6 mb 0.04 in1.0 mm 0.04 in1.0 mm 0.04 in1.0 mm
12:55 AM 54.4°F12.4°C 51.8°F11.0°C 92% Calm Calm 1.3 mph2.1 kmh 29.99 in1015.6 mb 0.00 in0.0 mm 0.00 in0.0 mm 0.05 in1.3 mm
12:50 AM 54.4°F12.4°C 51.8°F11.0°C 92% Calm Calm 2.7 mph4.3 kmh 29.99 in1015.6 mb 0.00 in0.0 mm 0.00 in0.0 mm 0.05 in1.3 mm
12:45 AM 54.4°F12.4°C 51.8°F11.0°C 92% 2.0 mph NW3.2 kmh NW 2.7 mph4.3 kmh 29.99 in1015.6 mb 0.05 in1.3 mm 0.00 in0.0 mm 0.05 in1.3 mm
12:40 AM 54.6°F12.6°C 51.8°F11.0°C 92% 1.6 mph NW2.6 kmh NW 2.5 mph4.0 kmh 29.99 in1015.6 mb 0.05 in1.3 mm 0.00 in0.0 mm 0.05 in1.3 mm
12:35 AM 54.6°F12.6°C 51.8°F11.0°C 93% Calm Calm 1.6 mph2.6 kmh 29.99 in1015.6 mb 0.05 in1.3 mm 0.00 in0.0 mm 0.05 in1.3 mm
12:30 AM 54.6°F12.6°C 51.8°F11.0°C 93% Calm Calm 2.9 mph4.7 kmh 29.99 in1015.6 mb 0.05 in1.3 mm 0.00 in0.0 mm 0.05 in1.3 mm
12:25 AM 54.6°F12.6°C 51.8°F11.0°C 93% 1.3 mph WSW2.1 kmh WSW 4.0 mph6.4 kmh 29.99 in1015.6 mb 0.05 in1.3 mm 0.00 in0.0 mm 0.05 in1.3 mm
12:20 AM 54.6°F12.6°C 51.8°F11.0°C 93% 2.5 mph WSW4.0 kmh WSW 4.0 mph6.4 kmh 29.99 in1015.6 mb 0.05 in1.3 mm 0.00 in0.0 mm 0.05 in1.3 mm
12:15 AM 54.6°F12.6°C 51.8°F11.0°C 93% 2.9 mph WSW4.7 kmh WSW 4.3 mph6.9 kmh 29.99 in1015.6 mb 0.05 in1.3 mm 0.00 in0.0 mm 0.05 in1.3 mm
12:10 AM 54.6°F12.6°C 51.8°F11.0°C 93% 3.4 mph WSW5.5 kmh WSW 4.3 mph6.9 kmh 29.99 in1015.6 mb 0.05 in1.3 mm 0.00 in0.0 mm 0.05 in1.3 mm
12:05 AM 54.6°F12.6°C 51.8°F11.0°C 93% 3.1 mph WSW5.0 kmh WSW 4.5 mph7.2 kmh 29.99 in1015.6 mb 0.05 in1.3 mm 0.00 in0.0 mm 0.05 in1.3 mm
12:00 AM 54.6°F12.6°C 51.8°F11.0°C 93% 3.4 mph WSW5.5 kmh WSW 4.9 mph7.9 kmh 29.99 in1015.6 mb 0.05 in1.3 mm 0.00 in0.0 mm 0.05 in1.3 mm